sensor_id;sensor_type;location;lat;lon;timestamp;pressure;altitude;pressure_sealevel;temperature;humidity
62926;BME280;55732;52.248;-0.844;2023-01-29T00:00:50;102179.23;;;6.28;84.79
62926;BME280;55732;52.248;-0.844;2023-01-29T00:03:16;102184.59;;;6.30;84.75
62926;BME280;55732;52.248;-0.844;2023-01-29T00:05:41;102183.48;;;6.28;84.43
62926;BME280;55732;52.248;-0.844;2023-01-29T00:08:07;102178.00;;;6.27;84.67
62926;BME280;55732;52.248;-0.844;2023-01-29T00:10:32;102174.05;;;6.24;84.32
62926;BME280;55732;52.248;-0.844;2023-01-29T00:12:57;102175.02;;;6.22;84.45
62926;BME280;55732;52.248;-0.844;2023-01-29T00:15:23;102168.97;;;6.20;84.48
62926;BME280;55732;52.248;-0.844;2023-01-29T00:17:48;102162.86;;;6.17;84.27
62926;BME280;55732;52.248;-0.844;2023-01-29T00:20:14;102157.15;;;6.13;84.34
62926;BME280;55732;52.248;-0.844;2023-01-29T00:22:39;102153.93;;;6.12;84.40
62926;BME280;55732;52.248;-0.844;2023-01-29T00:25:05;102145.49;;;6.10;84.42
62926;BME280;55732;52.248;-0.844;2023-01-29T00:27:31;102139.30;;;6.09;84.28
62926;BME280;55732;52.248;-0.844;2023-01-29T00:29:56;102141.54;;;6.08;84.34
62926;BME280;55732;52.248;-0.844;2023-01-29T00:32:37;102138.22;;;6.08;84.41
62926;BME280;55732;52.248;-0.844;2023-01-29T00:35:02;102135.31;;;6.10;84.34
62926;BME280;55732;52.248;-0.844;2023-01-29T00:37:28;102139.36;;;6.10;84.41
62926;BME280;55732;52.248;-0.844;2023-01-29T00:39:54;102143.80;;;6.12;84.43
62926;BME280;55732;52.248;-0.844;2023-01-29T00:42:19;102142.81;;;6.13;84.22
62926;BME280;55732;52.248;-0.844;2023-01-29T00:45:04;102147.12;;;6.12;84.31
62926;BME280;55732;52.248;-0.844;2023-01-29T00:47:29;102147.71;;;6.10;84.22
62926;BME280;55732;52.248;-0.844;2023-01-29T00:49:55;102146.92;;;6.08;84.20
62926;BME280;55732;52.248;-0.844;2023-01-29T00:52:20;102148.20;;;6.05;84.15
62926;BME280;55732;52.248;-0.844;2023-01-29T00:54:54;102150.55;;;6.02;84.15
62926;BME280;55732;52.248;-0.844;2023-01-29T00:57:20;102146.64;;;6.00;84.17
62926;BME280;55732;52.248;-0.844;2023-01-29T00:59:45;102146.05;;;5.99;84.15
62926;BME280;55732;52.248;-0.844;2023-01-29T01:02:11;102150.45;;;6.00;84.19
62926;BME280;55732;52.248;-0.844;2023-01-29T01:04:55;102150.64;;;6.00;84.32
62926;BME280;55732;52.248;-0.844;2023-01-29T01:07:20;102157.67;;;6.01;84.43
62926;BME280;55732;52.248;-0.844;2023-01-29T01:09:46;102158.96;;;6.03;84.28
62926;BME280;55732;52.248;-0.844;2023-01-29T01:12:30;102159.68;;;6.04;84.15
62926;BME280;55732;52.248;-0.844;2023-01-29T01:14:56;102154.96;;;6.03;84.10
62926;BME280;55732;52.248;-0.844;2023-01-29T01:17:22;102146.48;;;6.01;83.93
62926;BME280;55732;52.248;-0.844;2023-01-29T01:19:48;102146.40;;;5.99;83.94
62926;BME280;55732;52.248;-0.844;2023-01-29T01:22:13;102144.54;;;5.97;83.94
62926;BME280;55732;52.248;-0.844;2023-01-29T01:24:39;102140.55;;;5.93;83.99
62926;BME280;55732;52.248;-0.844;2023-01-29T01:27:05;102144.69;;;5.92;84.04
62926;BME280;55732;52.248;-0.844;2023-01-29T01:29:30;102142.02;;;5.91;83.98
62926;BME280;55732;52.248;-0.844;2023-01-29T01:31:56;102142.66;;;5.90;83.89
62926;BME280;55732;52.248;-0.844;2023-01-29T01:34:21;102135.27;;;5.88;83.91
62926;BME280;55732;52.248;-0.844;2023-01-29T01:36:47;102132.42;;;5.88;83.83
62926;BME280;55732;52.248;-0.844;2023-01-29T01:39:13;102130.56;;;5.88;83.95
62926;BME280;55732;52.248;-0.844;2023-01-29T01:41:38;102131.14;;;5.90;83.61
62926;BME280;55732;52.248;-0.844;2023-01-29T01:44:04;102131.48;;;5.90;83.54
62926;BME280;55732;52.248;-0.844;2023-01-29T01:46:36;102126.39;;;5.89;83.38
62926;BME280;55732;52.248;-0.844;2023-01-29T01:49:14;102123.98;;;5.87;83.32
62926;BME280;55732;52.248;-0.844;2023-01-29T01:51:45;102124.04;;;5.84;83.22
62926;BME280;55732;52.248;-0.844;2023-01-29T01:54:17;102124.61;;;5.81;83.22
62926;BME280;55732;52.248;-0.844;2023-01-29T01:56:51;102127.59;;;5.81;83.25
62926;BME280;55732;52.248;-0.844;2023-01-29T01:59:20;102130.59;;;5.82;83.27
62926;BME280;55732;52.248;-0.844;2023-01-29T02:01:50;102126.66;;;5.84;83.23
62926;BME280;55732;52.248;-0.844;2023-01-29T02:04:23;102122.91;;;5.86;83.19
62926;BME280;55732;52.248;-0.844;2023-01-29T02:07:11;102121.19;;;5.87;83.15
62926;BME280;55732;52.248;-0.844;2023-01-29T02:10:15;102123.33;;;5.88;82.96
62926;BME280;55732;52.248;-0.844;2023-01-29T02:12:44;102120.85;;;5.87;82.99
62926;BME280;55732;52.248;-0.844;2023-01-29T02:15:10;102119.70;;;5.85;82.84
62926;BME280;55732;52.248;-0.844;2023-01-29T02:17:36;102116.73;;;5.81;82.67
62926;BME280;55732;52.248;-0.844;2023-01-29T02:20:17;102117.56;;;5.75;82.81
62926;BME280;55732;52.248;-0.844;2023-01-29T02:36:19;102088.20;;;5.51;82.88
62926;BME280;55732;52.248;-0.844;2023-01-29T02:38:57;102082.84;;;5.44;82.95
62926;BME280;55732;52.248;-0.844;2023-01-29T02:41:41;102076.47;;;5.38;82.97
62926;BME280;55732;52.248;-0.844;2023-01-29T02:44:15;102071.67;;;5.33;82.99
62926;BME280;55732;52.248;-0.844;2023-01-29T02:46:58;102065.17;;;5.28;83.01
62926;BME280;55732;52.248;-0.844;2023-01-29T02:52:24;102064.00;;;5.21;83.25
62926;BME280;55732;52.248;-0.844;2023-01-29T02:54:54;102065.86;;;5.20;83.35
62926;BME280;55732;52.248;-0.844;2023-01-29T02:57:34;102069.19;;;5.20;83.45
62926;BME280;55732;52.248;-0.844;2023-01-29T03:00:20;102070.96;;;5.21;83.56
62926;BME280;55732;52.248;-0.844;2023-01-29T03:05:21;102056.84;;;5.17;83.41
62926;BME280;55732;52.248;-0.844;2023-01-29T03:07:54;102057.77;;;5.23;83.31
62926;BME280;55732;52.248;-0.844;2023-01-29T03:13:29;102059.96;;;5.21;83.50
62926;BME280;55732;52.248;-0.844;2023-01-29T03:15:58;102058.55;;;5.21;83.54
62926;BME280;55732;52.248;-0.844;2023-01-29T03:18:28;102049.10;;;5.20;83.50
62926;BME280;55732;52.248;-0.844;2023-01-29T03:21:02;102047.90;;;5.21;83.51
62926;BME280;55732;52.248;-0.844;2023-01-29T03:23:50;102045.66;;;5.21;83.50
62926;BME280;55732;52.248;-0.844;2023-01-29T03:26:35;102037.20;;;5.23;83.54
62926;BME280;55732;52.248;-0.844;2023-01-29T03:29:20;102033.27;;;5.25;83.43
62926;BME280;55732;52.248;-0.844;2023-01-29T03:32:05;102029.23;;;5.25;83.50
62926;BME280;55732;52.248;-0.844;2023-01-29T03:34:45;102035.09;;;5.23;83.41
62926;BME280;55732;52.248;-0.844;2023-01-29T03:37:17;102036.56;;;5.21;83.56
62926;BME280;55732;52.248;-0.844;2023-01-29T03:39:45;102034.13;;;5.21;83.55
62926;BME280;55732;52.248;-0.844;2023-01-29T03:42:28;102028.17;;;5.21;83.51
62926;BME280;55732;52.248;-0.844;2023-01-29T03:45:05;102022.80;;;5.22;83.51
62926;BME280;55732;52.248;-0.844;2023-01-29T03:52:58;102026.89;;;5.23;83.45
62926;BME280;55732;52.248;-0.844;2023-01-29T03:55:50;102029.92;;;5.25;83.51
62926;BME280;55732;52.248;-0.844;2023-01-29T03:58:56;102035.34;;;5.29;83.51
62926;BME280;55732;52.248;-0.844;2023-01-29T04:04:02;102007.65;;;5.35;83.38
62926;BME280;55732;52.248;-0.844;2023-01-29T04:06:33;101994.78;;;5.36;83.22
62926;BME280;55732;52.248;-0.844;2023-01-29T04:09:04;101989.92;;;5.37;83.17
62926;BME280;55732;52.248;-0.844;2023-01-29T04:11:32;101986.58;;;5.36;83.23
62926;BME280;55732;52.248;-0.844;2023-01-29T04:14:00;101983.30;;;5.33;83.07
62926;BME280;55732;52.248;-0.844;2023-01-29T04:16:30;101985.12;;;5.26;82.97
62926;BME280;55732;52.248;-0.844;2023-01-29T04:18:58;101987.77;;;5.18;82.76
62926;BME280;55732;52.248;-0.844;2023-01-29T04:21:24;101998.27;;;5.11;82.83
62926;BME280;55732;52.248;-0.844;2023-01-29T04:23:51;102008.58;;;5.03;83.21
62926;BME280;55732;52.248;-0.844;2023-01-29T04:31:56;102003.86;;;4.99;83.45
62926;BME280;55732;52.248;-0.844;2023-01-29T04:34:27;101997.23;;;5.03;83.58
62926;BME280;55732;52.248;-0.844;2023-01-29T04:37:12;101995.67;;;5.08;83.48
62926;BME280;55732;52.248;-0.844;2023-01-29T04:39:55;101993.73;;;5.12;83.23
62926;BME280;55732;52.248;-0.844;2023-01-29T04:42:35;101992.78;;;5.14;83.29
62926;BME280;55732;52.248;-0.844;2023-01-29T04:50:19;101978.19;;;5.15;83.21
62926;BME280;55732;52.248;-0.844;2023-01-29T04:55:46;101961.73;;;5.15;83.05
62926;BME280;55732;52.248;-0.844;2023-01-29T05:00:48;101954.94;;;5.15;82.96
62926;BME280;55732;52.248;-0.844;2023-01-29T05:03:18;101955.79;;;5.14;83.06
62926;BME280;55732;52.248;-0.844;2023-01-29T05:05:47;101957.43;;;5.16;83.06
62926;BME280;55732;52.248;-0.844;2023-01-29T05:08:18;101958.92;;;5.18;83.03
62926;BME280;55732;52.248;-0.844;2023-01-29T05:10:49;101955.48;;;5.19;83.09
62926;BME280;55732;52.248;-0.844;2023-01-29T05:13:17;101951.83;;;5.19;82.92
62926;BME280;55732;52.248;-0.844;2023-01-29T05:15:45;101953.13;;;5.17;83.00
62926;BME280;55732;52.248;-0.844;2023-01-29T05:18:13;101951.26;;;5.14;82.99
62926;BME280;55732;52.248;-0.844;2023-01-29T05:20:40;101941.83;;;5.10;82.87
62926;BME280;55732;52.248;-0.844;2023-01-29T05:23:18;101930.69;;;5.06;82.98
62926;BME280;55732;52.248;-0.844;2023-01-29T05:25:44;101925.09;;;5.06;82.92
62926;BME280;55732;52.248;-0.844;2023-01-29T05:28:11;101919.20;;;5.07;83.12
62926;BME280;55732;52.248;-0.844;2023-01-29T05:30:45;101917.77;;;5.11;83.17
62926;BME280;55732;52.248;-0.844;2023-01-29T05:35:41;101913.59;;;5.15;83.35
62926;BME280;55732;52.248;-0.844;2023-01-29T05:38:07;101910.70;;;5.17;83.13
62926;BME280;55732;52.248;-0.844;2023-01-29T05:40:33;101904.75;;;5.16;83.24
62926;BME280;55732;52.248;-0.844;2023-01-29T05:42:58;101895.48;;;5.16;83.16
62926;BME280;55732;52.248;-0.844;2023-01-29T05:45:24;101882.41;;;5.13;83.24
62926;BME280;55732;52.248;-0.844;2023-01-29T05:47:54;101878.63;;;5.14;83.13
62926;BME280;55732;52.248;-0.844;2023-01-29T05:50:20;101882.34;;;5.11;83.26
62926;BME280;55732;52.248;-0.844;2023-01-29T05:52:45;101877.61;;;5.06;83.40
62926;BME280;55732;52.248;-0.844;2023-01-29T05:55:10;101879.85;;;5.05;83.47
62926;BME280;55732;52.248;-0.844;2023-01-29T05:57:36;101880.84;;;5.04;83.46
62926;BME280;55732;52.248;-0.844;2023-01-29T06:00:03;101877.99;;;5.03;83.72
62926;BME280;55732;52.248;-0.844;2023-01-29T06:02:29;101878.04;;;5.04;83.91
62926;BME280;55732;52.248;-0.844;2023-01-29T06:04:55;101877.10;;;5.07;84.24
62926;BME280;55732;52.248;-0.844;2023-01-29T06:07:21;101879.88;;;5.11;84.15
62926;BME280;55732;52.248;-0.844;2023-01-29T06:09:46;101876.65;;;5.13;84.20
62926;BME280;55732;52.248;-0.844;2023-01-29T06:12:11;101877.84;;;5.16;84.33
62926;BME280;55732;52.248;-0.844;2023-01-29T06:14:37;101887.30;;;5.17;84.42
62926;BME280;55732;52.248;-0.844;2023-01-29T06:17:02;101884.90;;;5.18;84.52
62926;BME280;55732;52.248;-0.844;2023-01-29T06:19:29;101882.48;;;5.18;84.62
62926;BME280;55732;52.248;-0.844;2023-01-29T06:21:54;101878.49;;;5.19;84.64
62926;BME280;55732;52.248;-0.844;2023-01-29T06:24:20;101876.73;;;5.19;84.73
62926;BME280;55732;52.248;-0.844;2023-01-29T06:26:45;101877.11;;;5.20;84.89
62926;BME280;55732;52.248;-0.844;2023-01-29T06:29:11;101874.31;;;5.20;84.77
62926;BME280;55732;52.248;-0.844;2023-01-29T06:31:36;101878.72;;;5.21;84.93
62926;BME280;55732;52.248;-0.844;2023-01-29T06:34:02;101873.15;;;5.25;85.13
62926;BME280;55732;52.248;-0.844;2023-01-29T06:36:29;101872.42;;;5.28;84.99
62926;BME280;55732;52.248;-0.844;2023-01-29T06:38:54;101868.81;;;5.30;85.00
62926;BME280;55732;52.248;-0.844;2023-01-29T06:41:20;101869.38;;;5.31;84.96
62926;BME280;55732;52.248;-0.844;2023-01-29T06:43:50;101867.52;;;5.33;85.13
62926;BME280;55732;52.248;-0.844;2023-01-29T06:46:15;101864.10;;;5.35;84.88
62926;BME280;55732;52.248;-0.844;2023-01-29T06:48:41;101857.25;;;5.34;84.79
62926;BME280;55732;52.248;-0.844;2023-01-29T06:51:08;101857.71;;;5.32;84.77
62926;BME280;55732;52.248;-0.844;2023-01-29T06:53:34;101854.32;;;5.30;84.83
62926;BME280;55732;52.248;-0.844;2023-01-29T06:56:00;101858.14;;;5.29;84.87
62926;BME280;55732;52.248;-0.844;2023-01-29T06:58:25;101852.35;;;5.29;84.80
62926;BME280;55732;52.248;-0.844;2023-01-29T07:00:51;101845.83;;;5.27;84.77
62926;BME280;55732;52.248;-0.844;2023-01-29T07:03:17;101843.92;;;5.28;84.83
62926;BME280;55732;52.248;-0.844;2023-01-29T07:05:42;101844.73;;;5.26;84.65
62926;BME280;55732;52.248;-0.844;2023-01-29T07:08:07;101842.50;;;5.23;84.58
62926;BME280;55732;52.248;-0.844;2023-01-29T07:10:34;101840.25;;;5.19;84.50
62926;BME280;55732;52.248;-0.844;2023-01-29T07:13:00;101842.27;;;5.13;84.43
62926;BME280;55732;52.248;-0.844;2023-01-29T07:15:26;101844.80;;;5.06;84.62
62926;BME280;55732;52.248;-0.844;2023-01-29T07:17:59;101845.96;;;5.01;84.65
62926;BME280;55732;52.248;-0.844;2023-01-29T07:20:26;101847.16;;;4.96;84.73
62926;BME280;55732;52.248;-0.844;2023-01-29T07:22:52;101839.84;;;4.92;84.98
62926;BME280;55732;52.248;-0.844;2023-01-29T07:25:17;101840.77;;;4.89;85.05
62926;BME280;55732;52.248;-0.844;2023-01-29T07:27:43;101836.73;;;4.89;85.22
62926;BME280;55732;52.248;-0.844;2023-01-29T07:30:09;101838.00;;;4.90;85.10
62926;BME280;55732;52.248;-0.844;2023-01-29T07:32:34;101837.42;;;4.92;85.34
62926;BME280;55732;52.248;-0.844;2023-01-29T07:35:00;101841.37;;;4.95;85.31
62926;BME280;55732;52.248;-0.844;2023-01-29T07:37:25;101844.95;;;4.98;85.30
62926;BME280;55732;52.248;-0.844;2023-01-29T07:39:51;101843.45;;;4.99;85.28
62926;BME280;55732;52.248;-0.844;2023-01-29T07:42:16;101837.41;;;5.01;85.29
62926;BME280;55732;52.248;-0.844;2023-01-29T07:44:41;101835.39;;;5.02;85.28
62926;BME280;55732;52.248;-0.844;2023-01-29T07:47:07;101837.98;;;5.06;85.31
62926;BME280;55732;52.248;-0.844;2023-01-29T07:49:33;101835.95;;;5.08;85.26
62926;BME280;55732;52.248;-0.844;2023-01-29T07:51:58;101834.91;;;5.08;85.23
62926;BME280;55732;52.248;-0.844;2023-01-29T07:54:24;101830.52;;;5.07;85.23
62926;BME280;55732;52.248;-0.844;2023-01-29T07:56:49;101824.49;;;5.09;85.22
62926;BME280;55732;52.248;-0.844;2023-01-29T07:59:14;101821.46;;;5.12;85.44
62926;BME280;55732;52.248;-0.844;2023-01-29T08:01:40;101822.81;;;5.15;85.31
62926;BME280;55732;52.248;-0.844;2023-01-29T08:04:05;101819.91;;;5.17;85.28
62926;BME280;55732;52.248;-0.844;2023-01-29T08:06:31;101822.29;;;5.20;85.34
62926;BME280;55732;52.248;-0.844;2023-01-29T08:08:56;101819.48;;;5.24;85.28
62926;BME280;55732;52.248;-0.844;2023-01-29T08:11:22;101817.95;;;5.29;85.22
62926;BME280;55732;52.248;-0.844;2023-01-29T08:13:47;101819.67;;;5.33;85.11
62926;BME280;55732;52.248;-0.844;2023-01-29T08:16:13;101810.90;;;5.36;84.91
62926;BME280;55732;52.248;-0.844;2023-01-29T08:18:39;101807.84;;;5.38;84.98
62926;BME280;55732;52.248;-0.844;2023-01-29T08:21:08;101808.23;;;5.39;85.05
62926;BME280;55732;52.248;-0.844;2023-01-29T08:23:34;101804.65;;;5.41;85.09
62926;BME280;55732;52.248;-0.844;2023-01-29T08:26:01;101803.95;;;5.41;84.92
62926;BME280;55732;52.248;-0.844;2023-01-29T08:28:27;101803.77;;;5.41;85.13
62926;BME280;55732;52.248;-0.844;2023-01-29T08:30:52;101797.36;;;5.42;85.19
62926;BME280;55732;52.248;-0.844;2023-01-29T08:33:19;101799.30;;;5.42;85.05
62926;BME280;55732;52.248;-0.844;2023-01-29T08:35:48;101798.12;;;5.44;85.19
62926;BME280;55732;52.248;-0.844;2023-01-29T08:38:14;101799.08;;;5.47;85.25
62926;BME280;55732;52.248;-0.844;2023-01-29T08:40:40;101803.27;;;5.51;85.37
62926;BME280;55732;52.248;-0.844;2023-01-29T08:43:06;101800.34;;;5.56;85.21
62926;BME280;55732;52.248;-0.844;2023-01-29T08:45:33;101804.30;;;5.64;85.18
62926;BME280;55732;52.248;-0.844;2023-01-29T08:47:59;101804.83;;;5.73;85.11
62926;BME280;55732;52.248;-0.844;2023-01-29T08:50:24;101806.91;;;5.82;85.10
62926;BME280;55732;52.248;-0.844;2023-01-29T08:52:50;101804.16;;;5.87;84.89
62926;BME280;55732;52.248;-0.844;2023-01-29T08:55:15;101805.36;;;5.91;84.77
62926;BME280;55732;52.248;-0.844;2023-01-29T08:57:41;101805.66;;;5.95;84.59
62926;BME280;55732;52.248;-0.844;2023-01-29T09:00:08;101803.65;;;5.97;84.43
62926;BME280;55732;52.248;-0.844;2023-01-29T09:02:35;101806.23;;;6.00;84.25
62926;BME280;55732;52.248;-0.844;2023-01-29T09:05:00;101810.83;;;6.06;84.10
62926;BME280;55732;52.248;-0.844;2023-01-29T09:07:28;101811.69;;;6.10;84.26
62926;BME280;55732;52.248;-0.844;2023-01-29T09:09:53;101814.41;;;6.13;84.33
62926;BME280;55732;52.248;-0.844;2023-01-29T09:12:19;101809.67;;;6.18;84.24
62926;BME280;55732;52.248;-0.844;2023-01-29T09:14:45;101807.39;;;6.22;84.33
62926;BME280;55732;52.248;-0.844;2023-01-29T09:17:10;101810.60;;;6.24;84.28
62926;BME280;55732;52.248;-0.844;2023-01-29T09:19:35;101809.34;;;6.28;84.32
62926;BME280;55732;52.248;-0.844;2023-01-29T09:22:01;101804.14;;;6.34;84.20
62926;BME280;55732;52.248;-0.844;2023-01-29T09:24:26;101806.14;;;6.36;84.28
62926;BME280;55732;52.248;-0.844;2023-01-29T09:26:51;101797.67;;;6.34;84.16
62926;BME280;55732;52.248;-0.844;2023-01-29T09:29:17;101784.66;;;6.32;84.21
62926;BME280;55732;52.248;-0.844;2023-01-29T09:31:42;101787.30;;;6.38;84.32
62926;BME280;55732;52.248;-0.844;2023-01-29T09:34:08;101787.52;;;6.49;84.42
62926;BME280;55732;52.248;-0.844;2023-01-29T09:36:33;101785.80;;;6.56;84.27
62926;BME280;55732;52.248;-0.844;2023-01-29T09:38:58;101787.17;;;6.54;84.25
62926;BME280;55732;52.248;-0.844;2023-01-29T09:46:57;101797.20;;;6.61;84.84
62926;BME280;55732;52.248;-0.844;2023-01-29T09:49:35;101791.95;;;6.61;84.67
62926;BME280;55732;52.248;-0.844;2023-01-29T09:52:19;101788.58;;;6.59;84.78
62926;BME280;55732;52.248;-0.844;2023-01-29T09:55:14;101788.89;;;6.58;84.98
62926;BME280;55732;52.248;-0.844;2023-01-29T09:57:47;101782.49;;;6.61;84.98
62926;BME280;55732;52.248;-0.844;2023-01-29T10:00:17;101777.17;;;6.64;85.06
62926;BME280;55732;52.248;-0.844;2023-01-29T10:03:29;101777.11;;;6.67;85.11
62926;BME280;55732;52.248;-0.844;2023-01-29T10:06:09;101780.77;;;6.72;85.11
62926;BME280;55732;52.248;-0.844;2023-01-29T10:09:01;101779.65;;;6.75;85.29
62926;BME280;55732;52.248;-0.844;2023-01-29T10:17:30;101770.45;;;6.99;85.16
62926;BME280;55732;52.248;-0.844;2023-01-29T10:22:49;101762.55;;;7.09;85.09
62926;BME280;55732;52.248;-0.844;2023-01-29T10:25:19;101758.41;;;7.22;84.91
62926;BME280;55732;52.248;-0.844;2023-01-29T10:27:57;101757.63;;;7.36;84.88
62926;BME280;55732;52.248;-0.844;2023-01-29T10:30:39;101757.21;;;7.46;84.73
62926;BME280;55732;52.248;-0.844;2023-01-29T10:33:11;101754.20;;;7.56;84.63
62926;BME280;55732;52.248;-0.844;2023-01-29T10:35:46;101750.51;;;7.68;84.47
62926;BME280;55732;52.248;-0.844;2023-01-29T10:40:52;101739.48;;;7.93;84.06
62926;BME280;55732;52.248;-0.844;2023-01-29T10:43:31;101734.98;;;8.08;83.84
62926;BME280;55732;52.248;-0.844;2023-01-29T10:46:28;101726.34;;;8.31;83.51
62926;BME280;55732;52.248;-0.844;2023-01-29T10:49:09;101718.40;;;8.57;83.21
62926;BME280;55732;52.248;-0.844;2023-01-29T11:02:42;101694.73;;;9.41;81.08
62926;BME280;55732;52.248;-0.844;2023-01-29T11:05:25;101697.39;;;9.34;81.05
62926;BME280;55732;52.248;-0.844;2023-01-29T11:08:15;101693.27;;;9.30;81.12
62926;BME280;55732;52.248;-0.844;2023-01-29T11:13:33;101686.42;;;9.30;81.12
62926;BME280;55732;52.248;-0.844;2023-01-29T11:16:04;101688.55;;;9.31;81.22
62926;BME280;55732;52.248;-0.844;2023-01-29T11:21:14;101675.98;;;9.28;81.12
62926;BME280;55732;52.248;-0.844;2023-01-29T11:23:40;101674.81;;;9.30;81.13
62926;BME280;55732;52.248;-0.844;2023-01-29T11:26:07;101668.08;;;9.36;80.98
62926;BME280;55732;52.248;-0.844;2023-01-29T11:28:43;101662.98;;;9.45;80.90
62926;BME280;55732;52.248;-0.844;2023-01-29T11:31:25;101657.61;;;9.57;80.83
62926;BME280;55732;52.248;-0.844;2023-01-29T11:34:03;101656.11;;;9.70;80.35
62926;BME280;55732;52.248;-0.844;2023-01-29T11:36:37;101642.40;;;9.79;80.04
62926;BME280;55732;52.248;-0.844;2023-01-29T11:39:20;101632.89;;;9.88;79.78
62926;BME280;55732;52.248;-0.844;2023-01-29T11:41:56;101631.45;;;9.96;79.42
62926;BME280;55732;52.248;-0.844;2023-01-29T11:44:26;101627.58;;;10.06;79.49
62926;BME280;55732;52.248;-0.844;2023-01-29T11:46:52;101624.70;;;10.11;79.33
62926;BME280;55732;52.248;-0.844;2023-01-29T11:49:25;101624.38;;;10.13;79.10
62926;BME280;55732;52.248;-0.844;2023-01-29T11:51:54;101615.50;;;10.09;78.80
62926;BME280;55732;52.248;-0.844;2023-01-29T11:54:25;101612.94;;;10.04;78.86
62926;BME280;55732;52.248;-0.844;2023-01-29T11:56:52;101611.20;;;9.95;78.82
62926;BME280;55732;52.248;-0.844;2023-01-29T11:59:42;101601.80;;;9.92;78.91
62926;BME280;55732;52.248;-0.844;2023-01-29T12:02:18;101590.77;;;9.94;78.80
62926;BME280;55732;52.248;-0.844;2023-01-29T12:04:46;101586.45;;;9.98;78.50
62926;BME280;55732;52.248;-0.844;2023-01-29T12:07:16;101575.35;;;9.97;78.30
62926;BME280;55732;52.248;-0.844;2023-01-29T12:09:57;101573.39;;;9.96;78.42
62926;BME280;55732;52.248;-0.844;2023-01-29T12:12:30;101568.90;;;10.00;78.11
62926;BME280;55732;52.248;-0.844;2023-01-29T12:15:20;101567.59;;;10.07;77.99
62926;BME280;55732;52.248;-0.844;2023-01-29T12:18:20;101564.00;;;10.12;77.99
62926;BME280;55732;52.248;-0.844;2023-01-29T12:21:00;101553.89;;;10.18;77.69
62926;BME280;55732;52.248;-0.844;2023-01-29T12:24:00;101544.67;;;10.24;77.45
62926;BME280;55732;52.248;-0.844;2023-01-29T12:26:34;101543.33;;;10.28;76.99
62926;BME280;55732;52.248;-0.844;2023-01-29T12:29:07;101539.77;;;10.26;76.64
62926;BME280;55732;52.248;-0.844;2023-01-29T12:32:18;101537.25;;;10.22;76.50
62926;BME280;55732;52.248;-0.844;2023-01-29T12:35:02;101530.48;;;10.18;76.26
62926;BME280;55732;52.248;-0.844;2023-01-29T12:40:39;101522.16;;;10.05;76.04
62926;BME280;55732;52.248;-0.844;2023-01-29T12:43:15;101521.70;;;9.98;76.25
62926;BME280;55732;52.248;-0.844;2023-01-29T12:45:42;101513.23;;;9.86;76.41
62926;BME280;55732;52.248;-0.844;2023-01-29T12:48:17;101510.79;;;9.76;76.44
62926;BME280;55732;52.248;-0.844;2023-01-29T12:50:44;101510.52;;;9.72;76.57
62926;BME280;55732;52.248;-0.844;2023-01-29T12:56:31;101499.34;;;9.86;76.62
62926;BME280;55732;52.248;-0.844;2023-01-29T12:59:00;101495.45;;;9.96;76.64
62926;BME280;55732;52.248;-0.844;2023-01-29T13:01:32;101486.92;;;10.01;76.40
62926;BME280;55732;52.248;-0.844;2023-01-29T13:04:13;101488.00;;;10.03;76.09
62926;BME280;55732;52.248;-0.844;2023-01-29T13:06:44;101487.68;;;10.06;75.96
62926;BME280;55732;52.248;-0.844;2023-01-29T13:09:14;101480.96;;;10.14;75.94
62926;BME280;55732;52.248;-0.844;2023-01-29T13:11:44;101480.05;;;10.22;75.85
62926;BME280;55732;52.248;-0.844;2023-01-29T13:14:25;101483.82;;;10.28;75.45
62926;BME280;55732;52.248;-0.844;2023-01-29T13:17:05;101482.77;;;10.28;75.39
62926;BME280;55732;52.248;-0.844;2023-01-29T13:19:37;101481.15;;;10.27;75.37
62926;BME280;55732;52.248;-0.844;2023-01-29T13:22:15;101477.96;;;10.25;75.49
62926;BME280;55732;52.248;-0.844;2023-01-29T13:24:41;101475.56;;;10.29;75.62
62926;BME280;55732;52.248;-0.844;2023-01-29T13:27:18;101472.64;;;10.34;75.64
62926;BME280;55732;52.248;-0.844;2023-01-29T13:29:44;101470.23;;;10.36;75.51
62926;BME280;55732;52.248;-0.844;2023-01-29T13:32:10;101466.13;;;10.33;75.33
62926;BME280;55732;52.248;-0.844;2023-01-29T13:34:42;101462.67;;;10.26;75.06
62926;BME280;55732;52.248;-0.844;2023-01-29T13:37:15;101457.68;;;10.21;74.86
62926;BME280;55732;52.248;-0.844;2023-01-29T13:39:48;101449.23;;;10.21;74.71
62926;BME280;55732;52.248;-0.844;2023-01-29T13:42:24;101447.89;;;10.15;74.36
62926;BME280;55732;52.248;-0.844;2023-01-29T13:44:56;101445.11;;;10.06;74.65
62926;BME280;55732;52.248;-0.844;2023-01-29T13:47:30;101443.73;;;9.95;74.56
62926;BME280;55732;52.248;-0.844;2023-01-29T13:50:05;101445.50;;;9.85;74.50
62926;BME280;55732;52.248;-0.844;2023-01-29T13:52:40;101445.33;;;9.85;74.49
62926;BME280;55732;52.248;-0.844;2023-01-29T14:02:46;101419.21;;;9.80;74.56
62926;BME280;55732;52.248;-0.844;2023-01-29T14:07:57;101408.32;;;9.69;74.65
62926;BME280;55732;52.248;-0.844;2023-01-29T14:10:25;101403.50;;;9.64;74.71
62926;BME280;55732;52.248;-0.844;2023-01-29T14:18:45;101404.34;;;9.51;74.83
62926;BME280;55732;52.248;-0.844;2023-01-29T14:21:26;101403.92;;;9.48;75.14
62926;BME280;55732;52.248;-0.844;2023-01-29T14:26:40;101406.39;;;9.48;75.32
62926;BME280;55732;52.248;-0.844;2023-01-29T14:31:51;101406.30;;;9.42;75.39
62926;BME280;55732;52.248;-0.844;2023-01-29T14:36:55;101398.92;;;9.32;75.65
62926;BME280;55732;52.248;-0.844;2023-01-29T14:39:34;101395.21;;;9.30;75.92
62926;BME280;55732;52.248;-0.844;2023-01-29T14:42:04;101389.20;;;9.27;76.15
62926;BME280;55732;52.248;-0.844;2023-01-29T14:44:47;101387.55;;;9.25;76.35
62926;BME280;55732;52.248;-0.844;2023-01-29T14:49:53;101389.66;;;9.25;76.51
62926;BME280;55732;52.248;-0.844;2023-01-29T14:52:40;101386.58;;;9.29;76.72
62926;BME280;55732;52.248;-0.844;2023-01-29T14:55:14;101386.98;;;9.33;76.86
62926;BME280;55732;52.248;-0.844;2023-01-29T14:57:43;101377.89;;;9.36;77.05
62926;BME280;55732;52.248;-0.844;2023-01-29T15:00:33;101369.46;;;9.36;77.07
62926;BME280;55732;52.248;-0.844;2023-01-29T15:03:03;101364.88;;;9.35;77.17